sensor_id;sensor_type;location;lat;lon;timestamp;P1;durP1;ratioP1;P2;durP2;ratioP2
82221;SDS011;71818;52.352;10.912;2023-09-30T00:02:25;1.83;;;1.05;;
82221;SDS011;71818;52.352;10.912;2023-09-30T00:04:51;1.27;;;1.17;;
82221;SDS011;71818;52.352;10.912;2023-09-30T00:07:17;1.33;;;1.23;;
82221;SDS011;71818;52.352;10.912;2023-09-30T00:09:42;1.20;;;1.00;;
82221;SDS011;71818;52.352;10.912;2023-09-30T00:12:08;1.60;;;1.50;;
82221;SDS011;71818;52.352;10.912;2023-09-30T00:14:34;1.15;;;0.95;;
82221;SDS011;71818;52.352;10.912;2023-09-30T00:17:01;1.25;;;1.15;;
82221;SDS011;71818;52.352;10.912;2023-09-30T00:19:26;1.08;;;0.98;;
82221;SDS011;71818;52.352;10.912;2023-09-30T00:21:52;1.17;;;1.08;;
82221;SDS011;71818;52.352;10.912;2023-09-30T00:24:17;1.30;;;1.13;;
82221;SDS011;71818;52.352;10.912;2023-09-30T00:26:42;1.17;;;1.02;;
82221;SDS011;71818;52.352;10.912;2023-09-30T00:29:08;0.98;;;0.82;;
82221;SDS011;71818;52.352;10.912;2023-09-30T00:31:35;1.17;;;1.08;;
82221;SDS011;71818;52.352;10.912;2023-09-30T00:34:01;1.23;;;1.08;;
82221;SDS011;71818;52.352;10.912;2023-09-30T00:36:26;1.20;;;1.10;;
82221;SDS011;71818;52.352;10.912;2023-09-30T00:38:52;1.33;;;1.23;;
82221;SDS011;71818;52.352;10.912;2023-09-30T00:41:17;1.45;;;1.35;;
82221;SDS011;71818;52.352;10.912;2023-09-30T00:43:45;1.25;;;1.15;;
82221;SDS011;71818;52.352;10.912;2023-09-30T00:48:36;1.27;;;1.08;;
82221;SDS011;71818;52.352;10.912;2023-09-30T00:51:03;0.85;;;0.85;;
82221;SDS011;71818;52.352;10.912;2023-09-30T00:53:29;0.95;;;0.85;;
82221;SDS011;71818;52.352;10.912;2023-09-30T00:55:55;0.95;;;0.90;;
82221;SDS011;71818;52.352;10.912;2023-09-30T00:58:22;1.10;;;1.08;;
82221;SDS011;71818;52.352;10.912;2023-09-30T01:00:52;1.55;;;1.45;;
82221;SDS011;71818;52.352;10.912;2023-09-30T01:03:18;2.35;;;1.23;;
82221;SDS011;71818;52.352;10.912;2023-09-30T01:05:44;1.23;;;1.13;;
82221;SDS011;71818;52.352;10.912;2023-09-30T01:08:10;1.35;;;1.15;;
82221;SDS011;71818;52.352;10.912;2023-09-30T01:10:36;1.30;;;1.13;;
82221;SDS011;71818;52.352;10.912;2023-09-30T01:13:02;1.17;;;1.08;;
82221;SDS011;71818;52.352;10.912;2023-09-30T01:15:28;1.80;;;1.27;;
82221;SDS011;71818;52.352;10.912;2023-09-30T01:17:54;1.42;;;1.33;;
82221;SDS011;71818;52.352;10.912;2023-09-30T01:20:20;1.02;;;0.85;;
82221;SDS011;71818;52.352;10.912;2023-09-30T01:22:47;1.33;;;1.23;;
82221;SDS011;71818;52.352;10.912;2023-09-30T01:25:13;1.75;;;1.33;;
82221;SDS011;71818;52.352;10.912;2023-09-30T01:27:38;1.45;;;1.30;;
82221;SDS011;71818;52.352;10.912;2023-09-30T01:30:04;1.52;;;1.23;;
82221;SDS011;71818;52.352;10.912;2023-09-30T01:32:30;1.17;;;1.00;;
82221;SDS011;71818;52.352;10.912;2023-09-30T01:34:55;1.35;;;1.25;;
82221;SDS011;71818;52.352;10.912;2023-09-30T01:37:21;1.30;;;1.00;;
82221;SDS011;71818;52.352;10.912;2023-09-30T01:39:46;1.67;;;1.50;;
82221;SDS011;71818;52.352;10.912;2023-09-30T01:42:13;1.33;;;1.23;;
82221;SDS011;71818;52.352;10.912;2023-09-30T01:44:39;1.33;;;1.20;;
82221;SDS011;71818;52.352;10.912;2023-09-30T01:47:05;1.42;;;1.33;;
82221;SDS011;71818;52.352;10.912;2023-09-30T01:49:30;1.55;;;1.45;;
82221;SDS011;71818;52.352;10.912;2023-09-30T01:51:55;1.95;;;1.85;;
82221;SDS011;71818;52.352;10.912;2023-09-30T01:54:21;1.35;;;1.25;;
82221;SDS011;71818;52.352;10.912;2023-09-30T01:56:46;0.98;;;0.85;;
82221;SDS011;71818;52.352;10.912;2023-09-30T01:59:12;1.25;;;1.15;;
82221;SDS011;71818;52.352;10.912;2023-09-30T02:01:37;1.23;;;1.13;;
82221;SDS011;71818;52.352;10.912;2023-09-30T02:04:03;1.60;;;1.40;;
82221;SDS011;71818;52.352;10.912;2023-09-30T02:06:30;1.48;;;1.33;;
82221;SDS011;71818;52.352;10.912;2023-09-30T02:08:55;1.65;;;1.23;;
82221;SDS011;71818;52.352;10.912;2023-09-30T02:11:21;1.42;;;1.33;;
82221;SDS011;71818;52.352;10.912;2023-09-30T02:13:46;1.50;;;1.25;;
82221;SDS011;71818;52.352;10.912;2023-09-30T02:16:12;1.65;;;1.30;;
82221;SDS011;71818;52.352;10.912;2023-09-30T02:18:38;1.55;;;1.45;;
82221;SDS011;71818;52.352;10.912;2023-09-30T02:21:06;1.73;;;1.33;;
82221;SDS011;71818;52.352;10.912;2023-09-30T02:23:33;1.27;;;1.17;;
82221;SDS011;71818;52.352;10.912;2023-09-30T02:25:59;1.38;;;1.02;;
82221;SDS011;71818;52.352;10.912;2023-09-30T02:28:24;1.23;;;0.98;;
82221;SDS011;71818;52.352;10.912;2023-09-30T02:30:50;1.52;;;1.42;;
82221;SDS011;71818;52.352;10.912;2023-09-30T02:33:15;1.35;;;1.25;;
82221;SDS011;71818;52.352;10.912;2023-09-30T02:35:44;1.45;;;1.35;;
82221;SDS011;71818;52.352;10.912;2023-09-30T02:38:15;1.50;;;1.35;;
82221;SDS011;71818;52.352;10.912;2023-09-30T02:40:42;2.25;;;1.35;;
82221;SDS011;71818;52.352;10.912;2023-09-30T02:43:11;1.48;;;1.38;;
82221;SDS011;71818;52.352;10.912;2023-09-30T02:45:37;1.50;;;1.33;;
82221;SDS011;71818;52.352;10.912;2023-09-30T02:48:03;1.42;;;1.13;;
82221;SDS011;71818;52.352;10.912;2023-09-30T02:50:29;1.55;;;1.45;;
82221;SDS011;71818;52.352;10.912;2023-09-30T02:52:54;1.52;;;1.30;;
82221;SDS011;71818;52.352;10.912;2023-09-30T02:55:20;1.45;;;1.15;;
82221;SDS011;71818;52.352;10.912;2023-09-30T02:57:45;1.40;;;1.23;;
82221;SDS011;71818;52.352;10.912;2023-09-30T03:00:11;1.35;;;1.13;;
82221;SDS011;71818;52.352;10.912;2023-09-30T03:02:55;1.63;;;1.52;;
82221;SDS011;71818;52.352;10.912;2023-09-30T03:05:21;1.70;;;1.42;;
82221;SDS011;71818;52.352;10.912;2023-09-30T03:07:47;1.13;;;1.10;;
82221;SDS011;71818;52.352;10.912;2023-09-30T03:10:15;1.35;;;1.13;;
82221;SDS011;71818;52.352;10.912;2023-09-30T03:12:45;1.90;;;1.70;;
82221;SDS011;71818;52.352;10.912;2023-09-30T03:15:12;1.65;;;1.40;;
82221;SDS011;71818;52.352;10.912;2023-09-30T03:17:37;1.35;;;1.25;;
82221;SDS011;71818;52.352;10.912;2023-09-30T03:20:03;1.42;;;1.33;;
82221;SDS011;71818;52.352;10.912;2023-09-30T03:22:38;1.63;;;1.52;;
82221;SDS011;71818;52.352;10.912;2023-09-30T03:25:05;1.60;;;1.35;;
82221;SDS011;71818;52.352;10.912;2023-09-30T03:27:32;1.35;;;1.05;;
82221;SDS011;71818;52.352;10.912;2023-09-30T03:29:58;1.52;;;1.42;;
82221;SDS011;71818;52.352;10.912;2023-09-30T03:32:25;1.65;;;1.55;;
82221;SDS011;71818;52.352;10.912;2023-09-30T03:34:52;2.05;;;1.75;;
82221;SDS011;71818;52.352;10.912;2023-09-30T03:37:17;1.35;;;1.25;;
82221;SDS011;71818;52.352;10.912;2023-09-30T03:39:43;1.90;;;1.45;;
82221;SDS011;71818;52.352;10.912;2023-09-30T03:42:08;1.42;;;1.25;;
82221;SDS011;71818;52.352;10.912;2023-09-30T03:44:36;1.38;;;1.27;;
82221;SDS011;71818;52.352;10.912;2023-09-30T03:47:03;1.90;;;1.58;;
82221;SDS011;71818;52.352;10.912;2023-09-30T03:49:28;1.45;;;1.30;;
82221;SDS011;71818;52.352;10.912;2023-09-30T03:51:54;1.27;;;1.17;;
82221;SDS011;71818;52.352;10.912;2023-09-30T03:54:19;1.48;;;1.23;;
82221;SDS011;71818;52.352;10.912;2023-09-30T03:56:45;1.52;;;1.40;;
82221;SDS011;71818;52.352;10.912;2023-09-30T03:59:11;1.52;;;1.23;;
82221;SDS011;71818;52.352;10.912;2023-09-30T04:01:37;1.58;;;1.17;;
82221;SDS011;71818;52.352;10.912;2023-09-30T04:04:05;1.98;;;1.75;;
82221;SDS011;71818;52.352;10.912;2023-09-30T04:06:32;1.23;;;1.10;;
82221;SDS011;71818;52.352;10.912;2023-09-30T04:08:57;1.23;;;1.13;;
82221;SDS011;71818;52.352;10.912;2023-09-30T04:11:24;1.65;;;1.50;;
82221;SDS011;71818;52.352;10.912;2023-09-30T04:13:50;1.45;;;1.35;;
82221;SDS011;71818;52.352;10.912;2023-09-30T04:16:16;1.40;;;1.30;;
82221;SDS011;71818;52.352;10.912;2023-09-30T04:18:43;1.52;;;1.35;;
82221;SDS011;71818;52.352;10.912;2023-09-30T04:21:09;1.42;;;1.30;;
82221;SDS011;71818;52.352;10.912;2023-09-30T04:23:34;2.25;;;1.52;;
82221;SDS011;71818;52.352;10.912;2023-09-30T04:26:03;1.77;;;1.42;;
82221;SDS011;71818;52.352;10.912;2023-09-30T04:28:29;1.55;;;1.45;;
82221;SDS011;71818;52.352;10.912;2023-09-30T04:30:55;1.40;;;1.30;;
82221;SDS011;71818;52.352;10.912;2023-09-30T04:33:21;1.63;;;1.48;;
82221;SDS011;71818;52.352;10.912;2023-09-30T04:35:49;2.00;;;1.73;;
82221;SDS011;71818;52.352;10.912;2023-09-30T04:38:14;1.48;;;1.30;;
82221;SDS011;71818;52.352;10.912;2023-09-30T04:40:40;1.40;;;1.17;;
82221;SDS011;71818;52.352;10.912;2023-09-30T04:43:05;1.70;;;1.40;;
82221;SDS011;71818;52.352;10.912;2023-09-30T04:45:31;1.73;;;1.27;;
82221;SDS011;71818;52.352;10.912;2023-09-30T04:47:58;1.90;;;1.63;;
82221;SDS011;71818;52.352;10.912;2023-09-30T04:50:23;1.65;;;1.45;;
82221;SDS011;71818;52.352;10.912;2023-09-30T04:52:49;1.70;;;1.30;;
82221;SDS011;71818;52.352;10.912;2023-09-30T04:55:16;1.83;;;1.73;;
82221;SDS011;71818;52.352;10.912;2023-09-30T04:57:44;1.65;;;1.13;;
82221;SDS011;71818;52.352;10.912;2023-09-30T05:00:16;1.75;;;1.35;;
82221;SDS011;71818;52.352;10.912;2023-09-30T05:02:44;1.77;;;1.52;;
82221;SDS011;71818;52.352;10.912;2023-09-30T05:05:12;1.50;;;0.95;;
82221;SDS011;71818;52.352;10.912;2023-09-30T05:07:39;1.88;;;1.30;;
82221;SDS011;71818;52.352;10.912;2023-09-30T05:10:06;1.42;;;1.33;;
82221;SDS011;71818;52.352;10.912;2023-09-30T05:12:38;1.73;;;1.63;;
82221;SDS011;71818;52.352;10.912;2023-09-30T05:15:04;1.40;;;1.30;;
82221;SDS011;71818;52.352;10.912;2023-09-30T05:17:32;1.48;;;1.38;;
82221;SDS011;71818;52.352;10.912;2023-09-30T05:19:58;1.48;;;1.33;;
82221;SDS011;71818;52.352;10.912;2023-09-30T05:22:24;1.83;;;1.55;;
82221;SDS011;71818;52.352;10.912;2023-09-30T05:24:52;1.63;;;1.13;;
82221;SDS011;71818;52.352;10.912;2023-09-30T05:27:18;1.45;;;1.35;;
82221;SDS011;71818;52.352;10.912;2023-09-30T05:29:44;1.65;;;1.55;;
82221;SDS011;71818;52.352;10.912;2023-09-30T05:32:09;1.52;;;1.08;;
82221;SDS011;71818;52.352;10.912;2023-09-30T05:34:35;1.95;;;1.48;;
82221;SDS011;71818;52.352;10.912;2023-09-30T05:37:02;1.70;;;1.33;;
82221;SDS011;71818;52.352;10.912;2023-09-30T05:39:28;1.63;;;1.52;;
82221;SDS011;71818;52.352;10.912;2023-09-30T05:41:53;1.30;;;1.20;;
82221;SDS011;71818;52.352;10.912;2023-09-30T05:44:20;2.33;;;1.48;;
82221;SDS011;71818;52.352;10.912;2023-09-30T05:46:46;1.17;;;0.95;;
82221;SDS011;71818;52.352;10.912;2023-09-30T05:49:12;1.40;;;1.30;;
82221;SDS011;71818;52.352;10.912;2023-09-30T05:51:39;1.13;;;1.02;;
82221;SDS011;71818;52.352;10.912;2023-09-30T05:54:06;1.55;;;1.27;;
82221;SDS011;71818;52.352;10.912;2023-09-30T05:56:33;1.55;;;1.30;;
82221;SDS011;71818;52.352;10.912;2023-09-30T05:58:58;1.45;;;1.35;;
82221;SDS011;71818;52.352;10.912;2023-09-30T06:01:24;1.42;;;1.33;;
82221;SDS011;71818;52.352;10.912;2023-09-30T06:03:49;1.40;;;1.15;;
82221;SDS011;71818;52.352;10.912;2023-09-30T06:06:15;1.48;;;1.38;;
82221;SDS011;71818;52.352;10.912;2023-09-30T06:08:44;1.77;;;1.30;;
82221;SDS011;71818;52.352;10.912;2023-09-30T06:16:18;1.85;;;1.33;;
82221;SDS011;71818;52.352;10.912;2023-09-30T06:18:44;1.30;;;0.95;;
82221;SDS011;71818;52.352;10.912;2023-09-30T06:21:10;1.42;;;1.10;;
82221;SDS011;71818;52.352;10.912;2023-09-30T06:23:36;1.50;;;1.23;;
82221;SDS011;71818;52.352;10.912;2023-09-30T06:26:01;1.23;;;1.13;;
82221;SDS011;71818;52.352;10.912;2023-09-30T06:28:27;1.40;;;1.30;;
82221;SDS011;71818;52.352;10.912;2023-09-30T06:30:56;1.23;;;1.13;;
82221;SDS011;71818;52.352;10.912;2023-09-30T06:33:22;1.23;;;1.08;;
82221;SDS011;71818;52.352;10.912;2023-09-30T06:35:47;1.58;;;1.48;;
82221;SDS011;71818;52.352;10.912;2023-09-30T06:38:24;1.60;;;1.50;;
82221;SDS011;71818;52.352;10.912;2023-09-30T06:40:50;1.17;;;0.98;;
82221;SDS011;71818;52.352;10.912;2023-09-30T06:43:15;1.55;;;1.45;;
82221;SDS011;71818;52.352;10.912;2023-09-30T06:45:41;1.60;;;1.25;;
82221;SDS011;71818;52.352;10.912;2023-09-30T06:48:08;1.27;;;1.17;;
82221;SDS011;71818;52.352;10.912;2023-09-30T06:50:47;1.23;;;1.13;;
82221;SDS011;71818;52.352;10.912;2023-09-30T06:53:17;1.27;;;1.05;;
82221;SDS011;71818;52.352;10.912;2023-09-30T06:55:43;1.48;;;1.38;;
82221;SDS011;71818;52.352;10.912;2023-09-30T06:58:10;1.52;;;1.35;;
82221;SDS011;71818;52.352;10.912;2023-09-30T07:00:38;1.40;;;1.05;;
82221;SDS011;71818;52.352;10.912;2023-09-30T07:03:06;1.23;;;1.13;;
82221;SDS011;71818;52.352;10.912;2023-09-30T07:05:34;1.73;;;1.45;;
82221;SDS011;71818;52.352;10.912;2023-09-30T07:08:01;3.30;;;1.65;;
82221;SDS011;71818;52.352;10.912;2023-09-30T07:10:26;1.30;;;1.13;;
82221;SDS011;71818;52.352;10.912;2023-09-30T07:12:52;2.08;;;1.95;;
82221;SDS011;71818;52.352;10.912;2023-09-30T07:15:17;1.40;;;1.27;;
82221;SDS011;71818;52.352;10.912;2023-09-30T07:17:43;1.70;;;1.52;;
82221;SDS011;71818;52.352;10.912;2023-09-30T07:20:10;1.35;;;1.25;;
82221;SDS011;71818;52.352;10.912;2023-09-30T07:22:36;1.33;;;1.13;;
82221;SDS011;71818;52.352;10.912;2023-09-30T07:25:02;1.55;;;1.08;;
82221;SDS011;71818;52.352;10.912;2023-09-30T07:27:29;1.38;;;1.10;;
82221;SDS011;71818;52.352;10.912;2023-09-30T07:29:55;1.52;;;1.42;;
82221;SDS011;71818;52.352;10.912;2023-09-30T07:32:20;1.10;;;1.00;;
82221;SDS011;71818;52.352;10.912;2023-09-30T07:34:48;1.33;;;1.02;;
82221;SDS011;71818;52.352;10.912;2023-09-30T07:37:14;1.45;;;1.23;;
82221;SDS011;71818;52.352;10.912;2023-09-30T07:39:39;1.17;;;1.08;;
82221;SDS011;71818;52.352;10.912;2023-09-30T07:42:05;1.35;;;1.15;;
82221;SDS011;71818;52.352;10.912;2023-09-30T07:44:33;1.23;;;1.13;;
82221;SDS011;71818;52.352;10.912;2023-09-30T07:47:01;1.25;;;0.90;;
82221;SDS011;71818;52.352;10.912;2023-09-30T07:49:28;2.03;;;1.77;;
82221;SDS011;71818;52.352;10.912;2023-09-30T07:51:54;1.33;;;1.23;;
82221;SDS011;71818;52.352;10.912;2023-09-30T07:54:20;0.98;;;0.80;;
82221;SDS011;71818;52.352;10.912;2023-09-30T07:56:45;1.10;;;1.02;;
82221;SDS011;71818;52.352;10.912;2023-09-30T07:59:10;1.20;;;1.10;;
82221;SDS011;71818;52.352;10.912;2023-09-30T08:01:36;0.90;;;0.77;;
82221;SDS011;71818;52.352;10.912;2023-09-30T08:04:02;0.93;;;0.82;;
82221;SDS011;71818;52.352;10.912;2023-09-30T08:06:28;1.50;;;1.02;;
82221;SDS011;71818;52.352;10.912;2023-09-30T08:08:53;1.33;;;0.98;;
82221;SDS011;71818;52.352;10.912;2023-09-30T08:11:20;1.17;;;0.98;;
82221;SDS011;71818;52.352;10.912;2023-09-30T08:13:46;1.15;;;1.00;;
82221;SDS011;71818;52.352;10.912;2023-09-30T08:16:11;1.20;;;1.00;;
82221;SDS011;71818;52.352;10.912;2023-09-30T08:18:38;1.05;;;0.77;;
82221;SDS011;71818;52.352;10.912;2023-09-30T08:21:03;1.05;;;0.75;;
82221;SDS011;71818;52.352;10.912;2023-09-30T08:23:30;1.05;;;0.95;;
82221;SDS011;71818;52.352;10.912;2023-09-30T08:25:58;0.75;;;0.75;;
82221;SDS011;71818;52.352;10.912;2023-09-30T08:28:24;1.10;;;0.85;;
82221;SDS011;71818;52.352;10.912;2023-09-30T08:30:49;1.25;;;1.10;;
82221;SDS011;71818;52.352;10.912;2023-09-30T08:33:17;1.08;;;0.82;;
82221;SDS011;71818;52.352;10.912;2023-09-30T08:35:43;1.15;;;1.05;;
82221;SDS011;71818;52.352;10.912;2023-09-30T08:38:08;0.88;;;0.80;;
82221;SDS011;71818;52.352;10.912;2023-09-30T08:40:33;1.08;;;0.95;;
82221;SDS011;71818;52.352;10.912;2023-09-30T08:42:59;0.93;;;0.60;;
82221;SDS011;71818;52.352;10.912;2023-09-30T08:45:24;1.00;;;0.80;;
82221;SDS011;71818;52.352;10.912;2023-09-30T08:47:53;0.80;;;0.80;;
82221;SDS011;71818;52.352;10.912;2023-09-30T08:50:19;0.60;;;0.60;;
82221;SDS011;71818;52.352;10.912;2023-09-30T08:52:45;1.33;;;0.95;;
82221;SDS011;71818;52.352;10.912;2023-09-30T08:55:12;0.77;;;0.70;;
82221;SDS011;71818;52.352;10.912;2023-09-30T08:57:38;0.90;;;0.80;;
82221;SDS011;71818;52.352;10.912;2023-09-30T09:00:06;1.30;;;1.00;;
82221;SDS011;71818;52.352;10.912;2023-09-30T09:02:36;2.03;;;0.88;;
82221;SDS011;71818;52.352;10.912;2023-09-30T09:05:02;0.93;;;0.90;;
82221;SDS011;71818;52.352;10.912;2023-09-30T09:07:28;0.80;;;0.80;;
82221;SDS011;71818;52.352;10.912;2023-09-30T09:12:56;0.93;;;0.82;;
82221;SDS011;71818;52.352;10.912;2023-09-30T09:15:23;1.13;;;1.02;;
82221;SDS011;71818;52.352;10.912;2023-09-30T09:17:52;1.00;;;0.80;;
82221;SDS011;71818;52.352;10.912;2023-09-30T09:20:21;1.02;;;0.93;;
82221;SDS011;71818;52.352;10.912;2023-09-30T09:22:49;0.85;;;0.73;;
82221;SDS011;71818;52.352;10.912;2023-09-30T09:25:19;0.85;;;0.77;;
82221;SDS011;71818;52.352;10.912;2023-09-30T09:27:48;0.75;;;0.75;;
82221;SDS011;71818;52.352;10.912;2023-09-30T09:33:00;2.08;;;0.95;;
82221;SDS011;71818;52.352;10.912;2023-09-30T09:35:28;1.10;;;1.00;;
82221;SDS011;71818;52.352;10.912;2023-09-30T09:37:59;0.82;;;0.82;;
82221;SDS011;71818;52.352;10.912;2023-09-30T09:40:28;1.02;;;0.85;;
82221;SDS011;71818;52.352;10.912;2023-09-30T09:42:55;1.13;;;0.85;;
82221;SDS011;71818;52.352;10.912;2023-09-30T09:45:22;0.93;;;0.93;;
82221;SDS011;71818;52.352;10.912;2023-09-30T09:47:48;0.85;;;0.75;;
82221;SDS011;71818;52.352;10.912;2023-09-30T09:50:14;1.02;;;0.98;;
82221;SDS011;71818;52.352;10.912;2023-09-30T09:52:40;1.20;;;1.00;;
82221;SDS011;71818;52.352;10.912;2023-09-30T09:55:07;0.95;;;0.95;;
82221;SDS011;71818;52.352;10.912;2023-09-30T09:57:35;0.73;;;0.68;;
82221;SDS011;71818;52.352;10.912;2023-09-30T10:00:01;1.08;;;0.80;;
82221;SDS011;71818;52.352;10.912;2023-09-30T10:02:30;1.08;;;0.90;;
82221;SDS011;71818;52.352;10.912;2023-09-30T10:04:57;0.57;;;0.47;;
82221;SDS011;71818;52.352;10.912;2023-09-30T10:09:54;0.82;;;0.70;;
82221;SDS011;71818;52.352;10.912;2023-09-30T10:12:24;0.60;;;0.60;;
82221;SDS011;71818;52.352;10.912;2023-09-30T10:14:51;0.93;;;0.60;;
82221;SDS011;71818;52.352;10.912;2023-09-30T10:17:17;1.90;;;0.90;;
82221;SDS011;71818;52.352;10.912;2023-09-30T10:20:15;1.10;;;0.90;;
82221;SDS011;71818;52.352;10.912;2023-09-30T10:22:34;0.82;;;0.68;;
82221;SDS011;71818;52.352;10.912;2023-09-30T10:25:00;0.55;;;0.55;;
82221;SDS011;71818;52.352;10.912;2023-09-30T10:36:00;1.15;;;1.00;;
82221;SDS011;71818;52.352;10.912;2023-09-30T10:40:50;1.17;;;0.80;;
82221;SDS011;71818;52.352;10.912;2023-09-30T10:43:38;0.65;;;0.60;;
82221;SDS011;71818;52.352;10.912;2023-09-30T10:46:29;1.02;;;0.93;;
82221;SDS011;71818;52.352;10.912;2023-09-30T10:48:52;0.75;;;0.75;;
82221;SDS011;71818;52.352;10.912;2023-09-30T10:51:18;0.80;;;0.80;;
82221;SDS011;71818;52.352;10.912;2023-09-30T10:53:51;0.73;;;0.70;;
82221;SDS011;71818;52.352;10.912;2023-09-30T10:56:21;1.13;;;1.10;;
82221;SDS011;71818;52.352;10.912;2023-09-30T10:58:48;0.98;;;0.85;;
82221;SDS011;71818;52.352;10.912;2023-09-30T11:01:15;0.82;;;0.75;;
82221;SDS011;71818;52.352;10.912;2023-09-30T11:03:42;1.00;;;1.00;;
82221;SDS011;71818;52.352;10.912;2023-09-30T11:06:15;0.60;;;0.60;;
82221;SDS011;71818;52.352;10.912;2023-09-30T11:11:31;0.63;;;0.63;;
82221;SDS011;71818;52.352;10.912;2023-09-30T11:13:59;1.17;;;1.02;;
82221;SDS011;71818;52.352;10.912;2023-09-30T11:16:26;1.05;;;0.80;;
82221;SDS011;71818;52.352;10.912;2023-09-30T11:18:53;0.63;;;0.63;;
82221;SDS011;71818;52.352;10.912;2023-09-30T11:21:19;1.25;;;1.05;;
82221;SDS011;71818;52.352;10.912;2023-09-30T11:23:47;1.05;;;0.73;;
82221;SDS011;71818;52.352;10.912;2023-09-30T11:26:12;0.82;;;0.73;;
82221;SDS011;71818;52.352;10.912;2023-09-30T11:28:43;0.95;;;0.73;;
82221;SDS011;71818;52.352;10.912;2023-09-30T11:31:13;0.88;;;0.82;;
82221;SDS011;71818;52.352;10.912;2023-09-30T11:33:47;1.17;;;0.93;;
82221;SDS011;71818;52.352;10.912;2023-09-30T11:36:14;0.75;;;0.73;;
82221;SDS011;71818;52.352;10.912;2023-09-30T11:38:44;0.90;;;0.75;;
82221;SDS011;71818;52.352;10.912;2023-09-30T11:41:11;0.80;;;0.63;;
82221;SDS011;71818;52.352;10.912;2023-09-30T11:43:36;1.02;;;0.93;;
82221;SDS011;71818;52.352;10.912;2023-09-30T11:46:04;1.00;;;0.73;;
82221;SDS011;71818;52.352;10.912;2023-09-30T11:48:38;0.68;;;0.68;;
82221;SDS011;71818;52.352;10.912;2023-09-30T11:51:20;0.63;;;0.63;;
82221;SDS011;71818;52.352;10.912;2023-09-30T11:53:49;0.77;;;0.77;;
82221;SDS011;71818;52.352;10.912;2023-09-30T11:56:25;0.80;;;0.80;;
82221;SDS011;71818;52.352;10.912;2023-09-30T11:58:54;0.60;;;0.60;;
82221;SDS011;71818;52.352;10.912;2023-09-30T12:01:20;0.80;;;0.80;;
82221;SDS011;71818;52.352;10.912;2023-09-30T12:03:47;0.93;;;0.75;;
82221;SDS011;71818;52.352;10.912;2023-09-30T12:06:16;0.63;;;0.63;;
82221;SDS011;71818;52.352;10.912;2023-09-30T12:08:42;0.85;;;0.85;;
82221;SDS011;71818;52.352;10.912;2023-09-30T12:11:08;0.57;;;0.57;;
82221;SDS011;71818;52.352;10.912;2023-09-30T12:13:37;0.90;;;0.90;;
82221;SDS011;71818;52.352;10.912;2023-09-30T12:16:03;0.82;;;0.77;;
82221;SDS011;71818;52.352;10.912;2023-09-30T12:18:28;0.77;;;0.70;;
82221;SDS011;71818;52.352;10.912;2023-09-30T12:20:54;0.82;;;0.82;;
82221;SDS011;71818;52.352;10.912;2023-09-30T12:23:19;0.82;;;0.73;;
82221;SDS011;71818;52.352;10.912;2023-09-30T12:25:48;0.63;;;0.63;;
82221;SDS011;71818;52.352;10.912;2023-09-30T12:28:13;0.90;;;0.60;;
82221;SDS011;71818;52.352;10.912;2023-09-30T12:30:40;0.63;;;0.63;;
82221;SDS011;71818;52.352;10.912;2023-09-30T12:33:06;0.60;;;0.60;;
82221;SDS011;71818;52.352;10.912;2023-09-30T12:35:32;0.50;;;0.50;;
82221;SDS011;71818;52.352;10.912;2023-09-30T12:37:58;0.45;;;0.43;;
82221;SDS011;71818;52.352;10.912;2023-09-30T12:40:24;0.88;;;0.73;;
82221;SDS011;71818;52.352;10.912;2023-09-30T12:42:49;0.68;;;0.68;;
82221;SDS011;71818;52.352;10.912;2023-09-30T12:45:14;0.60;;;0.60;;
82221;SDS011;71818;52.352;10.912;2023-09-30T12:47:42;0.80;;;0.80;;
82221;SDS011;71818;52.352;10.912;2023-09-30T12:50:07;0.95;;;0.85;;
82221;SDS011;71818;52.352;10.912;2023-09-30T12:52:36;0.80;;;0.70;;
82221;SDS011;71818;52.352;10.912;2023-09-30T12:55:03;0.52;;;0.52;;
82221;SDS011;71818;52.352;10.912;2023-09-30T12:57:29;0.70;;;0.70;;
82221;SDS011;71818;52.352;10.912;2023-09-30T12:59:55;0.55;;;0.55;;
82221;SDS011;71818;52.352;10.912;2023-09-30T13:02:21;0.73;;;0.50;;
82221;SDS011;71818;52.352;10.912;2023-09-30T13:04:46;0.60;;;0.60;;
82221;SDS011;71818;52.352;10.912;2023-09-30T13:07:12;0.60;;;0.60;;
82221;SDS011;71818;52.352;10.912;2023-09-30T13:09:41;0.80;;;0.68;;
82221;SDS011;71818;52.352;10.912;2023-09-30T13:12:07;0.80;;;0.80;;
82221;SDS011;71818;52.352;10.912;2023-09-30T13:14:33;0.43;;;0.40;;
82221;SDS011;71818;52.352;10.912;2023-09-30T13:16:59;0.68;;;0.60;;
82221;SDS011;71818;52.352;10.912;2023-09-30T13:19:26;0.55;;;0.55;;
82221;SDS011;71818;52.352;10.912;2023-09-30T13:21:51;0.52;;;0.52;;
82221;SDS011;71818;52.352;10.912;2023-09-30T13:24:21;0.47;;;0.47;;
82221;SDS011;71818;52.352;10.912;2023-09-30T13:26:47;0.82;;;0.77;;
82221;SDS011;71818;52.352;10.912;2023-09-30T13:29:17;0.63;;;0.63;;
82221;SDS011;71818;52.352;10.912;2023-09-30T13:31:43;0.73;;;0.73;;
82221;SDS011;71818;52.352;10.912;2023-09-30T13:34:09;1.13;;;0.52;;
82221;SDS011;71818;52.352;10.912;2023-09-30T13:36:35;0.73;;;0.73;;
82221;SDS011;71818;52.352;10.912;2023-09-30T13:39:00;0.77;;;0.77;;
82221;SDS011;71818;52.352;10.912;2023-09-30T13:41:26;1.13;;;1.02;;
82221;SDS011;71818;52.352;10.912;2023-09-30T13:43:52;0.80;;;0.55;;
82221;SDS011;71818;52.352;10.912;2023-09-30T13:46:17;0.93;;;0.93;;
82221;SDS011;71818;52.352;10.912;2023-09-30T13:48:43;0.77;;;0.75;;
82221;SDS011;71818;52.352;10.912;2023-09-30T13:51:09;0.63;;;0.63;;
82221;SDS011;71818;52.352;10.912;2023-09-30T13:53:36;0.75;;;0.75;;
82221;SDS011;71818;52.352;10.912;2023-09-30T13:56:02;0.65;;;0.63;;
82221;SDS011;71818;52.352;10.912;2023-09-30T13:58:30;0.43;;;0.43;;
82221;SDS011;71818;52.352;10.912;2023-09-30T14:00:56;0.63;;;0.63;;
82221;SDS011;71818;52.352;10.912;2023-09-30T14:03:22;0.93;;;0.93;;
82221;SDS011;71818;52.352;10.912;2023-09-30T14:05:50;0.60;;;0.60;;
82221;SDS011;71818;52.352;10.912;2023-09-30T14:08:16;0.70;;;0.70;;
82221;SDS011;71818;52.352;10.912;2023-09-30T14:10:41;0.50;;;0.50;;
82221;SDS011;71818;52.352;10.912;2023-09-30T14:13:09;0.80;;;0.80;;
82221;SDS011;71818;52.352;10.912;2023-09-30T14:15:34;0.65;;;0.65;;
82221;SDS011;71818;52.352;10.912;2023-09-30T14:18:00;0.47;;;0.47;;
82221;SDS011;71818;52.352;10.912;2023-09-30T14:20:27;0.50;;;0.50;;
82221;SDS011;71818;52.352;10.912;2023-09-30T14:22:52;0.73;;;0.73;;
82221;SDS011;71818;52.352;10.912;2023-09-30T14:25:20;0.82;;;0.82;;
82221;SDS011;71818;52.352;10.912;2023-09-30T14:27:46;1.15;;;0.85;;
82221;SDS011;71818;52.352;10.912;2023-09-30T14:30:12;0.70;;;0.60;;
82221;SDS011;71818;52.352;10.912;2023-09-30T14:32:38;0.85;;;0.85;;
82221;SDS011;71818;52.352;10.912;2023-09-30T14:35:05;0.75;;;0.75;;
82221;SDS011;71818;52.352;10.912;2023-09-30T14:37:31;0.90;;;0.75;;
82221;SDS011;71818;52.352;10.912;2023-09-30T14:39:56;0.73;;;0.73;;
82221;SDS011;71818;52.352;10.912;2023-09-30T14:42:22;0.80;;;0.80;;
82221;SDS011;71818;52.352;10.912;2023-09-30T14:44:47;0.80;;;0.80;;
82221;SDS011;71818;52.352;10.912;2023-09-30T14:47:13;1.00;;;0.93;;
82221;SDS011;71818;52.352;10.912;2023-09-30T14:49:38;0.52;;;0.52;;
82221;SDS011;71818;52.352;10.912;2023-09-30T14:52:04;1.02;;;0.95;;
82221;SDS011;71818;52.352;10.912;2023-09-30T14:54:30;0.88;;;0.82;;
82221;SDS011;71818;52.352;10.912;2023-09-30T14:56:56;0.65;;;0.65;;
82221;SDS011;71818;52.352;10.912;2023-09-30T14:59:21;1.20;;;1.10;;
82221;SDS011;71818;52.352;10.912;2023-09-30T15:01:47;0.63;;;0.63;;